AirNav   Pilot Hours Calculator
 
 632 users online  

42VA Virginia Beach Airport
Virginia Beach, Virginia, USA

GOING TO VIRGINIA BEACH?


FAA INFORMATION EFFECTIVE 20 MAY 2021

Location

FAA Identifier: 42VA
Lat/Long: 36-40-44.0550N 076-01-57.9950W
36-40.734250N 076-01.966583W
36.6789042,-76.0327764
(estimated)
Elevation: 15 ft. / 5 m (estimated)
Variation: 10W (1990)
From city: 4 miles SE of VIRGINIA BEACH, VA
Time zone: UTC -4 (UTC -5 during Standard Time)
Zip code: 23457

Airport Operations

Airport use: Private use. Permission required prior to landing
Activation date: 04/1993
Control tower: no
ARTCC: WASHINGTON CENTER
FSS: LEESBURG FLIGHT SERVICE STATION
Attendance: UNATNDD
Wind indicator: yes
Segmented circle: no

Airport Communications

WX ASOS at NTU (9 nm N): PHONE DSN 433-3619 or 757-433-3619
WX AWOS-3 at CPK (14 nm W): 123.675 (757-204-4290)
WX ASOS at ORF (15 nm NW): PHONE 757-460-9348
WX AWOS-3 at ONX (17 nm S): 119.775 (252-453-8939)

Nearby radio navigation aids

VOR radial/distance  VOR name  Freq  Var
ORFr155/15.1NORFOLK VORTAC116.9007W
ECGr022/26.2ELIZABETH CITY VOR/DME112.5007W

 
NDB name  Hdg/Dist  Freq  Var  ID
INGLE142/14.332909WOR --- .-.
WOODVILLE037/28.025410WLLW .-.. .-.. .--

Airport Services

Runway Information

Runway 11/29

Dimensions: 4845 x 190 ft. / 1477 x 58 m
Surface: turf, in good condition
RUNWAY 11  RUNWAY 29
Latitude: 36-40.824167N36-40.644333N
Longitude: 076-02.449500W076-01.483667W
Elevation: 10.0 ft.9.0 ft.
Traffic pattern: leftleft

Airport Ownership and Management from official FAA records

Ownership: Privately-owned
Owner: VIRGINIA BEACH ARPT, LLC
4455 SOUTH BLVD
VIRGINIA BEACH, VA 23452
Phone 757-490-3157
Manager: GERALD YAGEN
4455 SOUTH BLVD
VIRGINIA BEACH, VA 23452
Phone 757-490-3157
EXTENSION 500.

Airport Operational Statistics

Aircraft based on the field: 54
Single engine airplanes: 50
Multi engine airplanes: 4
    

Additional Remarks

AWOS - PHONE 757-204-2683, FREQUENCY 119.925
FOR CD CTC WASHINGTON ARTCC AT 703-771-3587.

Instrument Procedures

There are no published instrument procedures at 42VA.

Some nearby airports with instrument procedures:

KNTU - Oceana Naval Air Station (Apollo Soucek Field) (9 nm N)
KCPK - Chesapeake Regional Airport (14 nm W)
KORF - Norfolk International Airport (15 nm NW)
KONX - Currituck County Regional Airport (17 nm S)
KNGU - Norfolk Naval Station (Chambers Field) (20 nm NW)
 
Loc | Ops | Rwys | IFR | FBO | Links
Com | Nav | Svcs | Stats | Notes
Area around 42VA (Virginia Beach Airport)
 
Road maps at: MapQuest Bing Google
 
Aerial photo
WARNING: Photo may not be current or correct
Aerial photo of 42VA (Virginia Beach Airport)
Photo by Jerry Yagen
Photo taken 10-Nov-2012
looking east.

Do you have a better or more recent aerial photo of Virginia Beach Airport that you would like to share? If so, please send us your photo.

 
Sectional chart

 
Airport distance calculator
Flying to Virginia Beach Airport? Find the distance to fly.

From to 42VA

Sunrise and sunset
Times for 13-Jun-2021
 Local
(UTC-4)
 Zulu
(UTC)
Morning civil twilight05:1509:15
Sunrise05:4609:46
Sunset20:2200:22
Evening civil twilight20:5300:53

Current date and time
Zulu (UTC)  13-Jun-2021 04:52:10
Local (UTC-4)  13-Jun-2021 00:52:10
 
METAR
KNFE 
5nm W 
130430Z AUTO 03004KT 10SM BKN012 19/18 A2988 RMK AO2 T01940178
KNTU 
8nm N 
130433Z 04008KT 10SM BKN009 21/18 A2988 RMK AO2 T02110178
KCPK 
14nm W 
130435Z AUTO 02004KT 7SM SCT013 20/18 A2989 RMK AO2 T01950175
KORF 
16nm NW 
130439Z 05008KT 10SM SCT012 SCT017 21/18 A2989 RMK AO2 T02060183
KONX 
17nm S 
130435Z AUTO 02009KT 10SM OVC011 20/20 A2987 RMK AO2 T02000200
KNGU 
18nm NW 
130359Z 06011KT 9SM SCT012 BKN200 21/17 A2990 RMK AO2 SLP125 T02060172 $
TAF
KNTU 
8nm N 
1223/1323 06010KT 9999 VCSH BKN015 BKN020 OVC060 QNH2976INS BECMG 1303/1305 VRB06KT 9999 NSWFEW030 SCT100 BKN200 QNH2985INS BECMG 1312/1314 08008KT 9999 FEW150 SCT250 QNH2989INS T21/1303Z T25/1318Z FN00071
KORF 
16nm NW 
130418Z 1304/1324 04011KT P6SM SCT012 BKN040 TEMPO 1304/1306 BKN012 FM130600 07007KT P6SM BKN030 FM131500 10009KT P6SM SCT050
KNGU 
18nm NW 
1223/1323 06010KT 9999 VCSH BKN015 BKN020 OVC060 QNH2976INS TEMPO 1223/1303 3200 -RA BKN010 BECMG 1303/1305 VRB06KT 9999 NSW SCT030 SCT100 BKN200 QNH2985INS BECMG 1312/1314 08008KT 9999 FEW150 SCT250 QNH2989INS T21/1303Z T25/1318Z FN00071
NOTAMs
Click for the latest NOTAMs
NOTAMs are issued by the DoD/FAA and will open in a separate window not controlled by AirNav.

 

 
 

Would you like to see your business listed on this page?

 If your business provides an interesting product or service to pilots, flight crews, aircraft, or users of the Virginia Beach Airport, you should consider listing it here.  To start the listing process, click on the button below
 
Add a business
 

Other Pages about Virginia Beach Airport

www.vbairport.com
Military Aviation Museum
www.fighterfactory.com
 
Update a link
 
Copyright © AirNav, LLC. All rights reserved. Privacy Policy  Contact